Terminal Aerodrome Forecast
Issued by NWS Louisville, KY

Home | Current Version | Previous Version | Text Only | Print | Product List | Glossary On
Versions: 1 2 3 4 5 6 7 8 9 10 11 12 13 14 15 16
000
FTUS43 KLMK 250541
TAFBWG
TAF
KBWG 250541Z 2506/2606 17009KT P6SM BKN200
     FM250800 17010KT P6SM FEW040 BKN200 WS020/19045KT
     FM251300 18015G28KT P6SM SCT050 BKN150
     FM252100 17014G22KT P6SM -SHRA VCTS BKN040CB=

USA.gov is the U.S. government's official web portal to all federal, state and local government web resources and services.